Flight Track Log - Related Links

Times and Time Zones

All times are in EDT time to prevent confusion due to time zone crossing. See the JA-738J flight status page for this flight to view local times or setup timezone preferences in your user account.

Time Position Orientation Groundspeed Altitude Reporting Facility
EDT Latitude Longitude Course Direction KTS MPH feet Rate Location/Type
Wed 04:22:22 PM 33.9430 -118.4670 262° West 179 206 2,000  Level FlightAware
Wed 04:22:52 PM 33.9400 -118.4980 263° West 196 226 2,800 1,527 Climbing FlightAware
Wed 04:23:17 PM 33.9360 -118.5210 258° West 206 237 3,400 1,200 Climbing FlightAware
Wed 04:23:32 PM 33.9350 -118.5400 266° West 227 261 3,600 1,200 Climbing FlightAware
Wed 04:24:02 PM 33.9350 -118.5780 270° West 257 296 4,300 1,636 Climbing FlightAware
Wed 04:24:27 PM 33.9350 -118.6080 270° West 269 310 5,100 2,182 Climbing FlightAware
Wed 04:24:57 PM 33.9350 -118.6590 270° West 286 329 6,300 2,291 Climbing FlightAware
Wed 04:25:22 PM 33.9350 -118.6920 270° West 291 335 7,200 3,171 Climbing FlightAware
Wed 04:26:07 PM 33.9360 -118.8070 271° West 312 359 10,000 2,612 Climbing FlightAware
Wed 04:26:47 PM 33.9350 -118.8810 269° West 353 406 10,900 1,271 Climbing FlightAware
Wed 04:27:32 PM 33.9560 -118.9690 286° West 380 437 11,800 1,800 Climbing FlightAware
Wed 04:28:07 PM 33.9960 -119.0270 310° West 383 441 13,300 2,850 Climbing FlightAware
Wed 04:28:52 PM 34.0490 -119.1030 310° West 383 441 15,600 2,775 Climbing FlightAware
Wed 04:29:27 PM 34.0850 -119.1540 310° West 384 442 17,000 2,021 Climbing FlightAware
Wed 04:30:27 PM 34.1530 -119.2520 310° West 399 459 18,800 1,943 Climbing FlightAware
Wed 04:31:12 PM 34.2110 -119.3360 310° West 407 468 20,400 2,067 Climbing FlightAware
Wed 04:31:57 PM 34.2660 -119.4170 309° West 414 476 21,900 1,906 Climbing FlightAware
Wed 04:32:37 PM 34.3160 -119.4880 310° West 421 484 23,100 1,624 Climbing FlightAware
Wed 04:33:22 PM 34.3730 -119.5710 310° West 432 497 24,200 1,533 Climbing FlightAware
Wed 04:34:07 PM 34.4270 -119.6500 310° West 438 504 25,400 1,050 Climbing FlightAware
Wed 04:34:42 PM 34.4700 -119.7140 309° West 439 505 25,600 1,425 Climbing FlightAware
Wed 04:35:27 PM 34.5340 -119.8050 311° West 451 519 27,300 1,733 Climbing FlightAware
Wed 04:36:12 PM 34.5980 -119.8900 312° West 458 527 28,200 1,129 Climbing FlightAware
Wed 04:36:52 PM 34.6550 -119.9660 312° West 468 539 28,900 675 Climbing FlightAware
Wed 04:37:32 PM 34.7090 -120.0410 311° West 468 539 29,100 1,200 Climbing FlightAware
Wed 04:38:17 PM 34.7810 -120.1370 312° West 475 547 30,600 1,467 Climbing FlightAware
Wed 04:39:02 PM 34.8470 -120.2270 312° West 481 554 31,300 565 Climbing FlightAware
Wed 04:39:42 PM 34.9000 -120.3020 311° West 481 554 31,400 67 Climbing FlightAware
Wed 04:40:32 PM 34.9620 -120.3890 311° West 481 554 31,400 360 Level FlightAware
Wed 04:41:22 PM 35.0550 -120.5110 313° West 472 543 32,000 400 Climbing FlightAware
Wed 04:42:02 PM 35.1090 -120.5860 311° West 471 542 32,000  Level FlightAware
Wed 04:42:42 PM 35.1690 -120.6680 312° West 471 542 32,000  Level FlightAware
Wed 04:43:27 PM 35.2310 -120.7530 312° West 471 542 32,000  Level FlightAware
Wed 04:44:07 PM 35.2880 -120.8340 311° West 471 542 32,000  Level FlightAware
Wed 04:44:52 PM 35.3580 -120.9300 312° West 474 545 32,000  Level FlightAware
Wed 04:45:32 PM 35.4140 -121.0070 312° West 473 544 32,000  Level FlightAware
Wed 04:46:12 PM 35.4750 -121.0920 311° West 471 542 32,000  Level FlightAware
Wed 04:46:57 PM 35.5330 -121.1740 311° West 471 542 32,000  Level FlightAware
Wed 04:47:37 PM 35.5950 -121.2600 312° West 473 544 32,000  Level FlightAware
Wed 04:48:17 PM 35.6520 -121.3410 311° West 472 543 32,000  Level FlightAware
Wed 04:49:02 PM 35.7150 -121.4290 311° West 472 543 32,000  Level FlightAware
Wed 04:49:32 PM 35.7700 -121.4840 321° Northwest 476 548 32,000  Level FlightAware
Wed 04:50:12 PM 35.8470 -121.5400 329° Northwest 477 549 32,000  Level FlightAware
Wed 04:50:52 PM 35.9200 -121.5980 327° Northwest 478 550 32,000  Level FlightAware
Wed 04:51:37 PM 36.0020 -121.6670 326° Northwest 477 549 32,000  Level FlightAware
Wed 04:52:17 PM 36.0720 -121.7270 325° Northwest 477 549 32,000  Level FlightAware
Wed 04:53:02 PM 36.1560 -121.7930 328° Northwest 477 549 32,000  Level FlightAware
Wed 04:53:42 PM 36.2310 -121.8510 328° Northwest 476 548 32,000  Level FlightAware
Wed 04:54:17 PM 36.2990 -121.9040 328° Northwest 474 545 32,000  Level FlightAware
Wed 04:55:07 PM 36.3920 -121.9770 328° Northwest 474 545 32,000  Level FlightAware
Wed 04:55:47 PM 36.4660 -122.0360 327° Northwest 474 545 32,000  Level FlightAware
Wed 04:56:27 PM 36.5400 -122.0940 328° Northwest 472 543 32,000  Level FlightAware
Wed 04:57:12 PM 36.6220 -122.1590 328° Northwest 472 543 32,000  Level FlightAware
Wed 04:57:52 PM 36.6930 -122.2150 328° Northwest 472 543 32,000  Level FlightAware
Wed 04:58:37 PM 36.7790 -122.2830 328° Northwest 468 539 32,000  Level FlightAware
Wed 04:59:17 PM 36.8510 -122.3410 327° Northwest 467 537 32,000  Level FlightAware
Wed 04:59:57 PM 36.9250 -122.4000 327° Northwest 468 539 32,000  Level FlightAware
Wed 05:00:42 PM 37.0040 -122.4630 328° Northwest 468 539 32,000  Level FlightAware
Wed 05:01:22 PM 37.0780 -122.5220 328° Northwest 466 536 32,000  Level FlightAware
Wed 05:02:02 PM 37.1490 -122.5790 327° Northwest 466 536 32,000  Level FlightAware
Wed 05:02:37 PM 37.2080 -122.6270 327° Northwest 466 536 32,000  Level FlightAware
Wed 05:03:22 PM 37.2960 -122.6980 327° Northwest 464 534 32,000  Level FlightAware
Wed 05:04:02 PM 37.3680 -122.7560 327° Northwest 463 533 32,000  Level FlightAware
Wed 05:04:47 PM 37.4510 -122.8230 327° Northwest 464 534 32,000  Level FlightAware
Wed 05:05:27 PM 37.5230 -122.8820 327° Northwest 464 534 32,000  Level FlightAware
Wed 05:06:12 PM 37.6010 -122.9460 327° Northwest 465 535 32,000  Level FlightAware
Wed 05:06:52 PM 37.6750 -123.0060 327° Northwest 465 535 32,000  Level FlightAware
Wed 05:07:32 PM 37.7460 -123.0640 327° Northwest 465 535 32,000  Level FlightAware
Wed 05:08:17 PM 37.8300 -123.1330 327° Northwest 465 535 32,000  Level FlightAware
Wed 05:08:57 PM 37.9030 -123.1930 327° Northwest 465 535 32,000  Level FlightAware
Wed 05:09:42 PM 37.9810 -123.2570 327° Northwest 465 535 32,000  Level FlightAware
Wed 05:10:22 PM 38.0540 -123.3180 327° Northwest 462 532 32,000  Level FlightAware
Wed 05:11:02 PM 38.1230 -123.3760 327° Northwest 460 529 32,000  Level FlightAware
Wed 05:11:47 PM 38.2050 -123.4440 327° Northwest 459 528 32,000  Level FlightAware
Wed 05:12:27 PM 38.2780 -123.5040 327° Northwest 458 527 32,000  Level FlightAware
Wed 05:13:12 PM 38.3560 -123.5700 326° Northwest 460 529 32,000  Level FlightAware
Wed 05:13:52 PM 38.4260 -123.6280 327° Northwest 461 531 32,000  Level FlightAware
Wed 05:14:32 PM 38.4930 -123.6860 326° Northwest 461 531 32,000  Level FlightAware
Wed 05:15:17 PM 38.5710 -123.7510 327° Northwest 459 528 32,000  Level FlightAware
Wed 05:15:52 PM 38.6390 -123.8080 327° Northwest 458 527 32,000  Level FlightAware
Wed 05:16:37 PM 38.7150 -123.8720 327° Northwest 452 520 32,000  Level FlightAware
Wed 05:17:12 PM 38.7770 -123.9250 326° Northwest 452 520 32,000  Level FlightAware
Wed 05:18:02 PM 38.8680 -124.0020 327° Northwest 452 520 32,000  Level FlightAware
Wed 05:18:42 PM 38.9400 -124.0640 326° Northwest 449 517 32,000  Level FlightAware
Wed 05:19:27 PM 39.0160 -124.1280 327° Northwest 446 513 32,000  Level FlightAware
Wed 05:20:12 PM 39.0940 -124.1960 326° Northwest 446 513 32,000  Level FlightAware
Wed 05:20:52 PM 39.1650 -124.2560 327° Northwest 446 513 32,000  Level FlightAware
Wed 05:21:32 PM 39.2220 -124.3070 325° Northwest 446 513 32,000  Level FlightAware
Wed 05:22:17 PM 39.3120 -124.3840 327° Northwest 451 519 32,000  Level FlightAware
Wed 05:22:57 PM 39.3820 -124.4440 326° Northwest 445 512 32,000  Level FlightAware
Wed 05:23:37 PM 39.4510 -124.5030 327° Northwest 451 519 32,000  Level FlightAware
Wed 05:24:22 PM 39.5280 -124.5710 326° Northwest 445 512 32,000  Level FlightAware
Wed 05:25:32 PM 39.6520 -124.6790 326° Northwest 449 517 32,000  Level FlightAware
Wed 05:26:27 PM 39.7380 -124.7540 326° Northwest 446 513 32,000  Level FlightAware
Wed 05:27:07 PM 39.7960 -124.8050 326° Northwest 446 513 32,000  Level FlightAware
Wed 05:27:47 PM 39.8540 -124.8570 325° Northwest 446 513 32,000  Level FlightAware
Wed 05:28:27 PM 39.9120 -124.9080 326° Northwest 446 513 32,000  Level FlightAware
Wed 05:29:07 PM 39.9710 -124.9590 326° Northwest 446 513 32,000  Level FlightAware
Wed 05:29:57 PM 40.0430 -125.0230 326° Northwest 446 513 32,000  Level FlightAware
Wed 05:30:37 PM 40.1020 -125.0740 327° Northwest 446 513 32,000  Level FlightAware
Wed 05:31:17 PM 40.1600 -125.1250 326° Northwest 446 513 32,000  Level FlightAware
Wed 05:31:57 PM 40.2180 -125.1770 326° Northwest 446 513 32,000  Level FlightAware
Wed 05:32:47 PM 40.2910 -125.2410 326° Northwest 446 513 32,000  Level FlightAware
Wed 05:33:27 PM 40.3490 -125.2930 326° Northwest 446 513 32,000  Level FlightAware
Wed 05:34:07 PM 40.4070 -125.3440 326° Northwest 446 513 32,000  Level FlightAware
Wed 05:34:47 PM 40.4650 -125.3960 326° Northwest 446 513 32,000  Level FlightAware
Wed 05:35:27 PM 40.5230 -125.4470 326° Northwest 446 513 32,000 -87 Level FlightAware
Wed 05:35:56 PM 40.6772 -125.5922 326° Northwest 429 494 31,900  Descending Seattle Center
Wed 05:36:57 PM 40.7753 -125.6811 326° Northwest 429 494 32,000 49 Climbing Seattle Center
Wed 05:37:58 PM 40.8722 -125.7711 325° Northwest 427 491 32,000  Level Seattle Center
Wed 05:38:58 PM 40.9697 -125.8614 325° Northwest 427 491 32,000  Level Seattle Center
Wed 05:39:37 PM 41.0497 -125.9328 326° Northwest 429 494 32,000 -60 Level Oakland Center
Wed 05:40:38 PM 41.1483 -126.0228 326° Northwest 430 495 31,900 -72 Descending Oakland Center
Wed 05:41:00 PM 41.1853 -126.0592 323° Northwest 428 493 31,900 72 Level Seattle Center
Wed 05:42:01 PM 41.2814 -126.1475 325° Northwest 422 486 32,000 60 Climbing Seattle Center
Wed 05:42:40 PM 41.3383 -126.2011 325° Northwest 421 484 32,000  Level Oakland Center
Wed 05:43:01 PM 41.3772 -126.2361 326° Northwest 421 484 32,000 -73 Level Seattle Center
Wed 05:44:02 PM 41.4731 -126.3264 325° Northwest 422 486 31,900  Descending Seattle Center
Wed 05:45:03 PM 41.5678 -126.4150 325° Northwest 418 481 32,000  Climbing Seattle Center
Wed 05:46:04 PM 41.6619 -126.5067 324° Northwest 418 481 31,900  Descending Seattle Center
Wed 05:47:05 PM 41.7428 -126.6150 315° West 413 475 32,000 34 Climbing Seattle Center
Wed 05:48:58 PM 41.9000 -126.8167 325° Northwest 428 493 32,000  Level Oakland Oceanic
Wed 05:49:26 PM 41.9333 -126.8667 325° Northwest 428 493 32,000  Level Oakland Oceanic
Wed 05:49:34 PM 41.9333 -126.8667 325° Northwest 429 494 32,000  Level Oakland Oceanic
Wed 05:55:00 PM 42.5185 -127.4187 325° Northwest 429 494 32,000  Level FlightAware
Wed 05:56:00 PM 42.6158 -127.5117 325° Northwest 429 494 32,000  Level FlightAware
Wed 05:57:00 PM 42.7130 -127.6050 325° Northwest 429 494 32,000  Level FlightAware
Wed 05:58:00 PM 42.8101 -127.6986 325° Northwest 429 494 32,000  Level FlightAware
Wed 05:59:00 PM 42.9072 -127.7925 325° Northwest 429 494 32,000  Level FlightAware
Wed 06:00:00 PM 43.0041 -127.8866 325° Northwest 429 494 32,000  Level FlightAware
Wed 06:01:00 PM 43.1010 -127.9811 324° Northwest 429 494 32,000  Level FlightAware
Wed 06:02:00 PM 43.1978 -128.0759 324° Northwest 429 494 32,000  Level FlightAware
Wed 06:03:00 PM 43.2946 -128.1710 324° Northwest 429 494 32,000  Level FlightAware
Wed 06:04:00 PM 43.3912 -128.2664 324° Northwest 429 494 32,000  Level FlightAware
Wed 06:05:00 PM 43.4878 -128.3620 324° Northwest 429 494 32,000  Level FlightAware
Wed 06:06:00 PM 43.5843 -128.4580 324° Northwest 429 494 32,000  Level FlightAware
Wed 06:07:00 PM 43.6807 -128.5543 324° Northwest 429 494 32,000  Level FlightAware
Wed 06:08:00 PM 43.7770 -128.6509 324° Northwest 429 494 32,000  Level FlightAware
Wed 06:09:00 PM 43.8733 -128.7478 324° Northwest 429 494 32,000  Level FlightAware
Wed 06:10:00 PM 43.9694 -128.8451 324° Northwest 429 494 32,000  Level FlightAware
Wed 06:11:00 PM 44.0655 -128.9426 324° Northwest 429 494 32,000  Level FlightAware
Wed 06:12:00 PM 44.1615 -129.0405 324° Northwest 429 494 32,000  Level FlightAware
Wed 06:13:00 PM 44.2575 -129.1387 324° Northwest 429 494 32,000  Level FlightAware
Wed 06:14:00 PM 44.3533 -129.2372 324° Northwest 429 494 32,000  Level FlightAware
Wed 06:15:00 PM 44.4490 -129.3360 324° Northwest 429 494 32,000  Level FlightAware
Wed 06:16:00 PM 44.5447 -129.4352 323° Northwest 429 494 32,000  Level FlightAware
Wed 06:16:17 PM 44.5833 -129.4667 323° Northwest 445 512 32,000  Level Oakland Oceanic
Wed 06:17:00 PM 44.6403 -129.5347 323° Northwest 429 494 32,000  Level FlightAware
Wed 06:18:00 PM 44.7358 -129.6345 323° Northwest 429 494 32,000  Level FlightAware
Wed 06:19:00 PM 44.8312 -129.7346 323° Northwest 429 494 32,000  Level FlightAware
Wed 06:20:00 PM 44.9265 -129.8351 323° Northwest 429 494 32,000  Level FlightAware
Wed 06:21:00 PM 45.0217 -129.9359 323° Northwest 429 494 32,000  Level FlightAware
Wed 06:22:00 PM 45.1689 -130.0858 323° Northwest 445 512 32,000  Level FlightAware
Wed 06:23:00 PM 45.2662 -130.1903 323° Northwest 445 512 32,000  Level FlightAware
Wed 06:24:00 PM 45.3633 -130.2950 323° Northwest 445 512 32,000  Level FlightAware
Wed 06:25:00 PM 45.4604 -130.4002 323° Northwest 445 512 32,000  Level FlightAware
Wed 06:26:00 PM 45.5574 -130.5057 323° Northwest 445 512 32,000  Level FlightAware
Wed 06:27:00 PM 45.6543 -130.6116 323° Northwest 445 512 32,000  Level FlightAware
Wed 06:28:00 PM 45.7511 -130.7178 322° Northwest 445 512 32,000  Level FlightAware
Wed 06:29:00 PM 45.8478 -130.8244 322° Northwest 445 512 32,000  Level FlightAware
Wed 06:30:00 PM 45.9443 -130.9314 322° Northwest 445 512 32,000  Level FlightAware
Wed 06:31:00 PM 46.0408 -131.0388 322° Northwest 445 512 32,000  Level FlightAware
Wed 06:32:00 PM 46.1372 -131.1465 322° Northwest 445 512 32,000  Level FlightAware
Wed 06:33:00 PM 46.2335 -131.2546 322° Northwest 445 512 32,000  Level FlightAware
Wed 06:34:00 PM 46.3297 -131.3631 322° Northwest 445 512 32,000  Level FlightAware
Wed 06:35:00 PM 46.4257 -131.4720 322° Northwest 445 512 32,000  Level FlightAware
Wed 06:36:00 PM 46.5217 -131.5812 322° Northwest 445 512 32,000  Level FlightAware
Wed 06:37:00 PM 46.6176 -131.6909 322° Northwest 445 512 32,000  Level FlightAware
Wed 06:38:00 PM 46.7133 -131.8009 322° Northwest 445 512 32,000  Level FlightAware
Wed 06:39:00 PM 46.8090 -131.9113 322° Northwest 445 512 32,000  Level FlightAware
Wed 06:40:00 PM 46.9046 -132.0221 322° Northwest 445 512 32,000  Level FlightAware
Wed 06:40:58 PM 47.0000 -132.1333 323° Northwest 428 493 32,000  Level Oakland Oceanic
Wed 06:41:00 PM 47.0000 -132.1333 323° Northwest 445 512 32,000  Level FlightAware
Wed 06:42:00 PM 47.0946 -132.2387 323° Northwest 445 512 32,000  Level FlightAware
Wed 06:42:57 PM 47.2000 -132.3500 323° Northwest 425 489 32,000  Level Oakland Oceanic
Wed 06:43:00 PM 47.1891 -132.3444 323° Northwest 445 512 32,000  Level FlightAware
Wed 06:44:00 PM 47.2835 -132.4505 323° Northwest 445 512 32,000  Level FlightAware
Wed 06:45:00 PM 47.3778 -132.5570 323° Northwest 445 512 32,000  Level FlightAware
Wed 06:46:00 PM 47.4720 -132.6639 322° Northwest 445 512 32,000  Level FlightAware
Wed 06:47:00 PM 47.5660 -132.7712 322° Northwest 428 493 32,000  Level FlightAware
Wed 06:48:00 PM 47.6600 -132.8788 322° Northwest 428 493 32,000  Level FlightAware
Wed 06:49:00 PM 47.7638 -132.9921 322° Northwest 425 489 32,000  Level FlightAware
Wed 06:50:00 PM 47.8574 -133.1004 322° Northwest 425 489 32,000  Level FlightAware
Wed 06:51:00 PM 47.9509 -133.2092 322° Northwest 425 489 32,000  Level FlightAware
Wed 06:52:00 PM 48.0443 -133.3183 322° Northwest 425 489 32,000  Level FlightAware
Wed 06:53:00 PM 48.1376 -133.4279 322° Northwest 425 489 32,000  Level FlightAware
Wed 06:54:00 PM 48.2309 -133.5378 322° Northwest 425 489 32,000  Level FlightAware
Wed 06:55:00 PM 48.3240 -133.6482 322° Northwest 425 489 32,000  Level FlightAware
Wed 06:56:00 PM 48.4169 -133.7589 322° Northwest 425 489 32,000  Level FlightAware
Wed 06:57:00 PM 48.5098 -133.8701 322° Northwest 425 489 32,000  Level FlightAware
Wed 06:58:00 PM 48.6026 -133.9816 321° Northwest 425 489 32,000  Level FlightAware
Wed 06:59:00 PM 48.6953 -134.0936 321° Northwest 425 489 32,000  Level FlightAware
Wed 07:00:00 PM 48.7878 -134.2060 321° Northwest 425 489 32,000  Level FlightAware
Wed 07:01:00 PM 48.8803 -134.3188 321° Northwest 425 489 32,000  Level FlightAware
Wed 07:02:00 PM 48.9726 -134.4320 321° Northwest 425 489 32,000  Level FlightAware
Wed 07:03:00 PM 49.0648 -134.5456 321° Northwest 425 489 32,000  Level FlightAware
Wed 07:04:00 PM 49.1570 -134.6597 321° Northwest 425 489 32,000  Level FlightAware
Wed 07:05:00 PM 49.2490 -134.7742 321° Northwest 425 489 32,000  Level FlightAware
Wed 07:06:00 PM 49.3409 -134.8891 321° Northwest 425 489 32,000  Level FlightAware
Wed 07:07:00 PM 49.4326 -135.0044 321° Northwest 425 489 32,000  Level FlightAware
Wed 07:08:00 PM 49.5243 -135.1202 321° Northwest 425 489 32,000  Level FlightAware
Wed 07:09:00 PM 49.6158 -135.2364 320° Northwest 425 489 32,000  Level FlightAware
Wed 07:09:38 PM 49.6333 -135.2667 321° Northwest 407 468 32,000  Level Oakland Oceanic
Wed 07:10:00 PM 49.7073 -135.3530 320° Northwest 425 489 32,000  Level FlightAware
Wed 07:11:00 PM 49.7986 -135.4701 320° Northwest 425 489 32,000  Level FlightAware
Wed 07:12:00 PM 49.8898 -135.5877 320° Northwest 425 489 32,000  Level FlightAware
Wed 07:13:00 PM 49.9809 -135.7056 320° Northwest 425 489 32,000  Level FlightAware
Wed 07:14:00 PM 50.0718 -135.8241 320° Northwest 425 489 32,000  Level FlightAware
Wed 07:15:00 PM 50.1501 -135.9334 320° Northwest 407 468 32,000  Level FlightAware
Wed 07:16:00 PM 50.2359 -136.0459 320° Northwest 407 468 32,000  Level FlightAware
Wed 07:17:00 PM 50.3215 -136.1589 320° Northwest 407 468 32,000  Level FlightAware
Wed 07:18:00 PM 50.4071 -136.2722 320° Northwest 407 468 32,000  Level FlightAware
Wed 07:19:00 PM 50.4925 -136.3860 320° Northwest 407 468 32,000  Level FlightAware
Wed 07:20:00 PM 50.5778 -136.5001 320° Northwest 407 468 32,000  Level FlightAware
Wed 07:21:00 PM 50.6630 -136.6147 319° Northwest 407 468 32,000  Level FlightAware
Wed 07:22:00 PM 50.7481 -136.7297 319° Northwest 407 468 32,000  Level FlightAware
Wed 07:23:00 PM 50.8331 -136.8451 319° Northwest 407 468 32,000  Level FlightAware
Wed 07:24:00 PM 50.9179 -136.9609 319° Northwest 407 468 32,000  Level FlightAware
Wed 07:25:00 PM 51.0027 -137.0771 319° Northwest 407 468 32,000  Level FlightAware
Wed 07:26:00 PM 51.0873 -137.1938 319° Northwest 407 468 32,000  Level FlightAware
Wed 07:27:00 PM 51.1718 -137.3109 319° Northwest 407 468 32,000  Level FlightAware
Wed 07:28:00 PM 51.2562 -137.4285 319° Northwest 407 468 32,000  Level FlightAware
Wed 07:29:00 PM 51.3405 -137.5464 319° Northwest 407 468 32,000  Level FlightAware
Wed 07:30:00 PM 51.4246 -137.6648 319° Northwest 407 468 32,000  Level FlightAware
Wed 07:31:00 PM 51.5087 -137.7836 319° Northwest 407 468 32,000  Level FlightAware
Wed 07:32:00 PM 51.5926 -137.9029 318° Northwest 407 468 32,000  Level FlightAware
Wed 07:33:00 PM 51.6764 -138.0226 318° Northwest 407 468 32,000  Level FlightAware
Wed 07:34:00 PM 51.7601 -138.1428 318° Northwest 407 468 32,000  Level FlightAware
Wed 07:35:00 PM 51.8436 -138.2634 318° Northwest 407 468 32,000  Level FlightAware
Wed 07:36:00 PM 51.9271 -138.3844 318° Northwest 407 468 32,000 714 Level FlightAware
Wed 07:36:24 PM 51.8667 -138.3000 318° Northwest 397 457 33,000  Climbing Oakland Oceanic
Wed 07:37:00 PM 52.0104 -138.5060 318° Northwest 407 468 32,000 -625 Descending FlightAware
Wed 07:38:00 PM 52.0936 -138.6279 318° Northwest 407 468 32,000  Level FlightAware
Wed 07:39:00 PM 52.1766 -138.7503 318° Northwest 407 468 32,000  Level FlightAware
Wed 07:40:00 PM 52.2595 -138.8732 318° Northwest 407 468 32,000  Level FlightAware
Wed 07:41:00 PM 52.3423 -138.9965 318° Northwest 407 468 32,000 500 Level FlightAware
Wed 07:42:00 PM 52.3554 -139.0179 318° Northwest 397 457 33,000 500 Climbing FlightAware
Wed 07:43:00 PM 52.4364 -139.1391 318° Northwest 397 457 33,000  Level FlightAware
Wed 07:44:00 PM 52.5173 -139.2607 317° Northwest 397 457 33,000  Level FlightAware
Wed 07:45:00 PM 52.5980 -139.3828 317° Northwest 397 457 33,000  Level FlightAware
Wed 07:46:00 PM 52.6787 -139.5053 317° Northwest 397 457 33,000  Level FlightAware
Wed 07:47:00 PM 52.7592 -139.6283 317° Northwest 397 457 33,000  Level FlightAware
Wed 07:48:00 PM 52.8396 -139.7517 317° Northwest 397 457 33,000  Level FlightAware
Wed 07:49:00 PM 52.9199 -139.8756 317° Northwest 397 457 33,000  Level FlightAware
Wed 07:50:00 PM 53.0000 -140.0000 309° West 397 457 33,000  Level FlightAware
Wed 07:50:30 PM 53.0000 -140.0000 309° West 400 460 33,000  Level Oakland Oceanic
Wed 07:51:00 PM 53.0718 -140.1482 309° West 397 457 33,000  Level FlightAware
Wed 07:52:00 PM 53.1434 -140.2969 309° West 397 457 33,000  Level FlightAware
Wed 07:53:00 PM 53.2149 -140.4462 309° West 397 457 33,000  Level FlightAware
Wed 07:54:00 PM 53.2861 -140.5959 308° West 397 457 33,000  Level FlightAware
Wed 07:55:00 PM 53.3572 -140.7461 308° West 397 457 33,000  Level FlightAware
Wed 07:56:00 PM 53.4146 -140.8680 308° West 400 460 33,000  Level FlightAware
Wed 07:57:00 PM 53.4831 -141.0143 308° West 400 460 33,000  Level FlightAware
Wed 07:58:00 PM 53.5514 -141.1611 308° West 400 460 33,000  Level FlightAware
Wed 07:59:00 PM 53.6195 -141.3084 308° West 400 460 33,000  Level FlightAware
Wed 08:00:00 PM 53.6875 -141.4561 308° West 400 460 33,000  Level FlightAware
Wed 08:01:00 PM 53.7552 -141.6043 308° West 400 460 33,000  Level FlightAware
Wed 08:02:00 PM 53.8228 -141.7530 308° West 400 460 33,000  Level FlightAware
Wed 08:02:58 PM 53.8167 -141.7333 308° West 410 472 33,000  Level Oakland Oceanic
Wed 08:03:00 PM 53.8902 -141.9022 307° West 400 460 33,000  Level FlightAware
Wed 08:04:00 PM 53.9574 -142.0518 307° West 400 460 33,000  Level FlightAware
Wed 08:05:00 PM 54.0244 -142.2020 307° West 400 460 33,000  Level FlightAware
Wed 08:06:00 PM 54.0912 -142.3526 307° West 400 460 33,000  Level FlightAware
Wed 08:07:00 PM 54.1579 -142.5037 307° West 400 460 33,000  Level FlightAware
Wed 08:08:00 PM 54.2243 -142.6553 307° West 400 460 33,000  Level FlightAware
Wed 08:09:00 PM 54.2270 -142.6559 307° West 410 472 33,000  Level FlightAware
Wed 08:10:00 PM 54.2947 -142.8114 307° West 410 472 33,000  Level FlightAware
Wed 08:11:00 PM 54.3622 -142.9675 307° West 410 472 33,000  Level FlightAware
Wed 08:12:00 PM 54.4295 -143.1240 306° West 410 472 33,000  Level FlightAware
Wed 08:13:00 PM 54.4966 -143.2811 306° West 410 472 33,000  Level FlightAware
Wed 08:14:00 PM 54.5635 -143.4387 306° West 410 472 33,000  Level FlightAware
Wed 08:15:00 PM 54.6302 -143.5968 306° West 410 472 33,000  Level FlightAware
Wed 08:16:00 PM 54.6967 -143.7554 306° West 410 472 33,000  Level FlightAware
Wed 08:17:00 PM 54.7630 -143.9146 306° West 410 472 33,000  Level FlightAware
Wed 08:18:00 PM 54.8290 -144.0742 306° West 410 472 33,000  Level FlightAware
Wed 08:19:00 PM 54.8949 -144.2344 305° West 410 472 33,000  Level FlightAware
Wed 08:20:00 PM 54.9605 -144.3951 305° West 410 472 33,000  Level FlightAware
Wed 08:21:00 PM 55.0260 -144.5564 305° West 410 472 33,000  Level FlightAware
Wed 08:22:00 PM 55.0912 -144.7181 305° West 410 472 33,000  Level FlightAware
Wed 08:23:00 PM 55.1562 -144.8804 305° West 410 472 33,000  Level FlightAware
Wed 08:24:00 PM 55.2210 -145.0432 305° West 410 472 33,000  Level FlightAware
Wed 08:25:00 PM 55.2855 -145.2066 305° West 410 472 33,000  Level FlightAware
Wed 08:26:00 PM 55.3499 -145.3705 305° West 410 472 33,000  Level FlightAware
Wed 08:27:00 PM 55.4140 -145.5349 304° West 410 472 33,000  Level FlightAware
Wed 08:28:00 PM 55.4779 -145.6998 304° West 410 472 33,000  Level FlightAware
Wed 08:29:00 PM 55.5416 -145.8653 304° West 410 472 33,000  Level FlightAware
Wed 08:29:39 PM 55.5833 -145.9833 304° West 432 497 33,000  Level Oakland Oceanic
Wed 08:30:00 PM 55.6051 -146.0313 304° West 410 472 33,000  Level FlightAware
Wed 08:31:00 PM 55.6683 -146.1979 304° West 410 472 33,000  Level FlightAware
Wed 08:32:00 PM 55.7313 -146.3650 304° West 410 472 33,000  Level FlightAware
Wed 08:33:00 PM 55.7941 -146.5326 304° West 410 472 33,000  Level FlightAware
Wed 08:34:00 PM 55.8567 -146.7008 303° West 410 472 33,000  Level FlightAware
Wed 08:34:54 PM 55.9167 -146.8833 303° West 420 483 33,000  Level Anchorage Center
Wed 08:35:00 PM 55.9166 -146.8701 303° West 432 497 33,000  Level FlightAware
Wed 08:35:55 PM 55.9833 -147.0667 303° West 430 495 33,000  Level Anchorage Center
Wed 08:36:00 PM 55.9825 -147.0493 303° West 432 497 33,000  Level FlightAware
Wed 08:36:54 PM 56.0500 -147.2500 303° West 430 495 33,000  Level Anchorage Center
Wed 08:37:00 PM 56.0481 -147.2291 303° West 432 497 33,000  Level FlightAware
Wed 08:37:55 PM 56.1167 -147.4333 303° West 430 495 33,000  Level Anchorage Center
Wed 08:38:00 PM 56.1134 -147.4095 303° West 432 497 33,000  Level FlightAware
Wed 08:38:55 PM 56.1833 -147.6167 303° West 430 495 33,000  Level Anchorage Center
Wed 08:39:00 PM 56.1785 -147.5905 303° West 432 497 33,000  Level FlightAware
Wed 08:39:55 PM 56.2500 -147.8000 303° West 430 495 33,000  Level Anchorage Center
Wed 08:40:00 PM 56.2434 -147.7722 303° West 432 497 33,000  Level FlightAware
Wed 08:40:55 PM 56.3167 -147.9833 303° West 420 483 33,000 157 Level Anchorage Center
Wed 08:41:55 PM 56.3833 -148.1667 303° West 430 495 33,300 500 Climbing Anchorage Center
Wed 08:42:55 PM 56.4500 -148.3500 303° West 430 495 34,000 350 Climbing Anchorage Center
Wed 08:43:55 PM 56.5000 -148.5333 296° West 430 495 34,000  Level Anchorage Center
Wed 08:44:55 PM 56.5667 -148.7333 301° West 430 495 34,000  Level Anchorage Center
Wed 08:45:55 PM 56.6333 -148.9167 304° West 440 506 34,000  Level Anchorage Center
Wed 08:46:56 PM 56.7000 -149.1167 301° West 430 495 34,000  Level Anchorage Center
Wed 08:47:55 PM 56.7667 -149.3000 304° West 440 506 34,000  Level Anchorage Center
Wed 08:48:56 PM 56.8333 -149.5000 301° West 440 506 34,000  Level Anchorage Center
Wed 08:49:55 PM 56.9000 -149.6833 304° West 440 506 34,000  Level Anchorage Center
Wed 08:50:55 PM 56.9500 -149.8833 295° West 430 495 34,000  Level Anchorage Center
Wed 08:51:56 PM 57.0167 -150.0833 302° West 450 518 34,000  Level Anchorage Center
Wed 08:52:56 PM 57.0500 -150.3000 286° West 440 506 34,000  Level Anchorage Center
Wed 08:53:56 PM 57.0833 -150.5000 287° West 430 495 34,000  Level Anchorage Center
Wed 08:54:56 PM 57.1167 -150.6833 289° West 440 506 34,000  Level Anchorage Center
Wed 08:56:00 PM 57.1622 -150.8992 291° West  Level FlightAware
Wed 08:56:56 PM 57.2167 -151.1500 291° West 440 506 34,000  Level Anchorage Center
Wed 08:57:56 PM 57.2500 -151.3667 286° West 430 495 34,000  Level Anchorage Center
Wed 08:58:56 PM 57.2833 -151.5500 289° West 440 506 34,000  Level Anchorage Center
Wed 08:59:56 PM 57.3167 -151.7667 286° West 440 506 34,000  Level Anchorage Center
Wed 09:00:57 PM 57.3500 -151.9833 286° West 440 506 34,000  Level Anchorage Center
Wed 09:01:57 PM 57.4000 -152.2167 292° West 440 506 34,000  Level Anchorage Center
Wed 09:02:57 PM 57.4333 -152.4167 287° West 440 506 34,000  Level Anchorage Center
Wed 09:03:57 PM 57.4667 -152.6333 286° West 440 506 34,000  Level Anchorage Center
Wed 09:04:57 PM 57.5000 -152.8500 286° West 430 495 34,000  Level Anchorage Center
Wed 09:05:57 PM 57.5333 -153.0667 286° West 440 506 34,000  Level Anchorage Center
Wed 09:06:57 PM 57.5833 -153.2833 293° West 440 506 34,000  Level Anchorage Center
Wed 09:07:57 PM 57.6167 -153.5000 286° West 430 495 34,000  Level Anchorage Center
Wed 09:08:57 PM 57.6500 -153.7333 285° West 430 495 34,000  Level Anchorage Center
Wed 09:09:57 PM 57.6833 -153.9500 286° West 440 506 34,000  Level Anchorage Center
Wed 09:10:57 PM 57.7167 -154.1667 286° West 440 506 34,000  Level Anchorage Center
Wed 09:11:57 PM 57.7500 -154.4000 285° West 440 506 34,000  Level Anchorage Center
Wed 09:12:57 PM 57.7833 -154.6167 286° West 450 518 34,000  Level Anchorage Center
Wed 09:13:58 PM 57.8167 -154.8500 285° West 450 518 34,000  Level Anchorage Center
Wed 09:14:57 PM 57.8500 -155.1000 284° West 450 518 34,000  Level Anchorage Center
Wed 09:15:58 PM 57.8833 -155.3333 285° West 450 518 34,000  Level Anchorage Center
Wed 09:16:58 PM 57.9167 -155.5500 286° West 450 518 34,000  Level Anchorage Center
Wed 09:17:58 PM 57.9500 -155.7833 285° West 450 518 34,000  Level Anchorage Center
Wed 09:18:58 PM 57.9833 -156.0167 285° West 450 518 34,000  Level Anchorage Center
Wed 09:19:58 PM 58.0167 -156.2333 286° West 440 506 34,000  Level Anchorage Center
Wed 09:20:58 PM 58.0500 -156.4667 285° West 440 506 34,000  Level Anchorage Center
Wed 09:21:58 PM 58.0667 -156.6833 278° West 440 506 34,000  Level Anchorage Center
Wed 09:22:58 PM 58.1000 -156.9000 286° West 450 518 34,000  Level Anchorage Center
Wed 09:23:58 PM 58.1333 -157.1333 285° West 450 518 34,000  Level Anchorage Center
Wed 09:24:59 PM 58.1667 -157.3667 285° West 450 518 34,000  Level Anchorage Center
Wed 09:25:59 PM 58.1833 -157.6000 278° West 450 518 34,000  Level Anchorage Center
Wed 09:26:58 PM 58.2167 -157.8333 285° West 450 518 34,000  Level Anchorage Center
Wed 09:27:59 PM 58.2500 -158.0667 285° West 450 518 34,000  Level Anchorage Center
Wed 09:28:59 PM 58.2667 -158.3167 277° West 450 518 34,000  Level Anchorage Center
Wed 09:29:59 PM 58.3000 -158.5500 285° West 450 518 34,000  Level Anchorage Center
Wed 09:30:59 PM 58.3333 -158.7833 285° West 460 529 34,000  Level Anchorage Center
Wed 09:31:59 PM 58.3500 -159.0167 278° West 450 518 34,000  Level Anchorage Center
Wed 09:32:59 PM 58.3833 -159.2500 285° West 450 518 34,000  Level Anchorage Center
Wed 09:33:59 PM 58.4000 -159.5000 277° West 460 529 34,000  Level Anchorage Center
Wed 09:34:59 PM 58.4333 -159.7333 285° West 460 529 34,000  Level Anchorage Center
Wed 09:35:59 PM 58.4500 -159.9833 277° West 460 529 34,000  Level Anchorage Center
Wed 09:37:00 PM 58.4833 -160.2167 285° West 460 529 34,000  Level Anchorage Center
Wed 09:37:59 PM 58.5000 -160.4667 277° West 460 529 34,000  Level Anchorage Center
Wed 09:38:59 PM 58.5333 -160.7167 284° West 460 529 34,000  Level Anchorage Center
Wed 09:40:00 PM 58.5500 -160.9500 278° West 460 529 34,000  Level Anchorage Center
Wed 09:41:00 PM 58.5667 -161.2000 277° West 460 529 34,000  Level Anchorage Center
Wed 09:42:00 PM 58.6000 -161.4333 285° West 460 529 34,000  Level Anchorage Center
Wed 09:43:00 PM 58.6167 -161.6833 277° West 450 518 34,000  Level Anchorage Center
Wed 09:44:00 PM 58.6333 -161.9333 277° West 460 529 34,000  Level Anchorage Center
Wed 09:45:00 PM 58.6500 -162.1833 277° West 450 518 34,000  Level Anchorage Center
Wed 09:46:00 PM 58.6500 -162.4333 270° West 450 518 34,000  Level Anchorage Center
Wed 09:47:00 PM 58.6500 -162.7000 270° West 460 529 34,000  Level Anchorage Center
Wed 09:48:00 PM 58.6500 -162.9500 270° West 460 529 34,000  Level Anchorage Center
Wed 09:49:00 PM 58.6500 -163.2000 270° West 470 541 34,000  Level Anchorage Center
Wed 09:50:01 PM 58.6667 -163.4500 277° West 470 541 34,000  Level Anchorage Center
Wed 09:51:01 PM 58.6667 -163.7000 270° West 460 529 34,000  Level Anchorage Center
Wed 09:52:00 PM 58.6667 -163.9500 270° West 470 541 34,000  Level Anchorage Center
Wed 09:53:01 PM 58.6500 -164.2000 263° West 460 529 34,000  Level Anchorage Center
Wed 09:54:01 PM 58.6500 -164.4500 270° West 460 529 34,000  Level Anchorage Center
Wed 09:55:01 PM 58.6500 -164.7000 270° West 460 529 34,000  Level Anchorage Center
Wed 09:56:01 PM 58.6500 -164.9500 270° West 460 529 34,000  Level Anchorage Center
Wed 09:57:01 PM 58.6500 -165.2000 270° West 470 541 34,000  Level Anchorage Center
Wed 09:58:01 PM 58.6500 -165.4500 270° West 470 541 34,000  Level Anchorage Center
Wed 09:59:12 PM 58.6500 -165.7500 270° West 460 529 34,000  Level Anchorage Center
Wed 10:00:13 PM 58.6333 -166.0000 263° West 470 541 34,000  Level Anchorage Center
Wed 10:01:13 PM 58.6333 -166.2500 270° West 460 529 34,000  Level Anchorage Center
Wed 10:02:13 PM 58.6333 -166.5167 270° West 470 541 34,000  Level Anchorage Center
Wed 10:03:13 PM 58.6167 -166.7667 263° West 470 541 34,000  Level Anchorage Center
Wed 10:04:13 PM 58.6167 -167.0000 270° West 450 518 34,000  Level Anchorage Center
Wed 10:05:13 PM 58.6167 -167.2500 270° West 460 529 34,000  Level Anchorage Center
Wed 10:06:13 PM 58.6000 -167.5000 263° West 460 529 34,000  Level Anchorage Center
Wed 10:07:13 PM 58.6000 -167.7500 270° West 470 541 34,000  Level Anchorage Center
Wed 10:08:13 PM 58.5833 -168.0000 263° West 460 529 34,000  Level Anchorage Center
Wed 10:09:13 PM 58.5833 -168.2500 270° West 460 529 34,000  Level Anchorage Center
Wed 10:10:13 PM 58.5667 -168.5000 263° West 470 541 34,000  Level Anchorage Center
Wed 10:11:13 PM 58.5667 -168.7500 270° West 460 529 34,000  Level Anchorage Center
Wed 10:12:14 PM 58.5500 -169.0000 263° West 460 529 34,000  Level Anchorage Center
Wed 10:13:13 PM 58.5333 -169.2500 263° West 470 541 34,000  Level Anchorage Center
Wed 10:14:13 PM 58.5333 -169.5000 270° West 470 541 34,000  Level Anchorage Center
Wed 10:15:14 PM 58.5167 -169.7500 263° West 460 529 34,000  Level Anchorage Center
Wed 10:16:13 PM 58.5000 -170.0000 263° West 460 529 34,000  Level Anchorage Center
Wed 10:17:14 PM 58.5000 -170.2333 270° West 450 518 34,000  Level Anchorage Center
Wed 10:18:14 PM 58.4833 -170.4833 263° West 470 541 34,000  Level Anchorage Center
Wed 10:19:14 PM 58.4667 -170.7333 263° West 460 529 34,000  Level Anchorage Center
Wed 10:20:14 PM 58.4500 -170.9667 262° West 450 518 34,000  Level Anchorage Center
Wed 10:21:14 PM 58.4333 -171.2167 263° West 460 529 34,000  Level Anchorage Center
Wed 10:22:14 PM 58.4167 -171.4667 263° West 460 529 34,000  Level Anchorage Center
Wed 10:23:14 PM 58.4000 -171.7167 263° West 460 529 34,000  Level Anchorage Center
Wed 10:24:14 PM 58.3833 -171.9500 262° West 460 529 34,000  Level Anchorage Center
Wed 10:25:14 PM 58.3833 -172.2000 270° West 460 529 34,000  Level Anchorage Center
Wed 10:26:14 PM 58.3667 -172.4333 262° West 460 529 34,000  Level Anchorage Center
Wed 10:27:14 PM 58.3333 -172.6833 256° West 460 529 34,000  Level Anchorage Center
Wed 10:28:14 PM 58.3167 -172.9333 263° West 460 529 34,000  Level Anchorage Center
Wed 10:29:14 PM 58.3000 -173.1667 262° West 460 529 34,000  Level Anchorage Center
Wed 10:30:14 PM 58.2833 -173.4167 263° West 460 529 34,000  Level Anchorage Center
Wed 10:31:14 PM 58.2667 -173.6500 262° West 460 529 34,000  Level Anchorage Center
Wed 10:32:15 PM 58.2167 -173.8833 248° West 460 529 34,000  Level Anchorage Center
Wed 10:33:15 PM 58.1500 -174.1167 242° Southwest 470 541 34,000  Level Anchorage Center
Wed 10:34:14 PM 58.1000 -174.3333 246° West 460 529 34,000  Level Anchorage Center
Wed 10:35:15 PM 58.0500 -174.5667 248° West 470 541 34,000  Level Anchorage Center
Wed 10:36:15 PM 58.0000 -174.8000 248° West 460 529 34,000  Level Anchorage Center
Wed 10:37:15 PM 57.9667 -174.9833 251° West 470 541 34,000  Level Anchorage Center
Wed 10:38:15 PM 57.9167 -175.2000 247° West 460 529 34,000  Level Anchorage Center
Wed 10:39:15 PM 57.8500 -175.4167 240° Southwest 470 541 34,000  Level Anchorage Center
Wed 10:40:15 PM 57.8000 -175.6500 248° West 460 529 34,000  Level Anchorage Center
Wed 10:41:15 PM 57.7500 -175.8667 247° West 460 529 34,000  Level Anchorage Center
Wed 10:42:15 PM 57.7000 -176.0833 247° West 450 518 34,000  Level Anchorage Center
Wed 10:44:00 PM 57.6184 -176.4372 247° West  Level FlightAware
Wed 10:45:23 PM 57.5333 -176.8000 252° West 454 522 34,000  Level Anchorage Center
Wed 10:51:00 PM 57.2960 -178.1199 251° West 454 522 34,000  Level FlightAware
Wed 10:52:00 PM 57.2551 -178.3382 251° West 454 522 34,000  Level FlightAware
Wed 10:53:00 PM 57.2139 -178.5561 251° West 454 522 34,000  Level FlightAware
Wed 10:54:00 PM 57.1722 -178.7734 250° West 454 522 34,000  Level FlightAware
Wed 10:54:59 PM 57.1500 -178.8833 250° West 448 516 34,000  Level Anchorage Center
Wed 10:55:00 PM 57.1302 -178.9902 250° West 454 522 34,000  Level FlightAware
Wed 10:56:00 PM 57.0878 -179.2066 250° West 454 522 34,000  Level FlightAware
Wed 10:57:00 PM 57.0451 -179.4225 250° West 454 522 34,000  Level FlightAware
Wed 10:58:00 PM 57.0020 -179.6378 250° West 454 522 34,000  Level FlightAware
Wed 10:59:00 PM 56.9585 -179.8527 250° West 454 522 34,000  Level FlightAware
Wed 11:00:00 PM 56.9146 179.9330 249° West 454 522 34,000  Level FlightAware
Wed 11:01:00 PM 56.8943 179.8390 249° West 448 516 34,000  Level FlightAware
Wed 11:02:00 PM 56.8505 179.6278 249° West 448 516 34,000  Level FlightAware
Wed 11:03:00 PM 56.8063 179.4171 249° West 448 516 34,000  Level FlightAware
Wed 11:04:00 PM 56.7617 179.2069 249° West 448 516 34,000  Level FlightAware
Wed 11:05:00 PM 56.7168 178.9971 249° West 448 516 34,000  Level FlightAware
Wed 11:06:00 PM 56.6715 178.7879 248° West 448 516 34,000  Level FlightAware
Wed 11:07:00 PM 56.6258 178.5792 248° West 448 516 34,000  Level FlightAware
Wed 11:08:00 PM 56.5799 178.3710 248° West 448 516 34,000  Level FlightAware
Wed 11:09:00 PM 56.5335 178.1633 248° West 448 516 34,000  Level FlightAware
Wed 11:10:00 PM 56.4869 177.9561 248° West 448 516 34,000  Level FlightAware
Wed 11:11:00 PM 56.4398 177.7494 248° West 448 516 34,000  Level FlightAware
Wed 11:12:00 PM 56.3925 177.5432 247° West 448 516 34,000  Level FlightAware
Wed 11:13:00 PM 56.3448 177.3376 247° West 448 516 34,000  Level FlightAware
Wed 11:14:00 PM 56.2967 177.1324 247° West 448 516 34,000  Level FlightAware
Wed 11:15:00 PM 56.2484 176.9278 247° West 448 516 34,000  Level FlightAware
Wed 11:16:00 PM 56.1996 176.7237 247° West 448 516 34,000  Level FlightAware
Wed 11:17:00 PM 56.1506 176.5201 247° West 448 516 34,000  Level FlightAware
Wed 11:18:00 PM 56.1012 176.3171 246° West 448 516 34,000  Level FlightAware
Wed 11:19:00 PM 56.0515 176.1145 246° West 448 516 34,000  Level FlightAware
Wed 11:20:00 PM 56.0015 175.9125 246° West 448 516 34,000  Level FlightAware
Wed 11:20:38 PM 55.9667 175.8167 245° Southwest 430 495 34,000  Level Anchorage Center
Wed 11:21:00 PM 55.9511 175.7110 246° West 448 516 34,000  Level FlightAware
Wed 11:21:38 PM 55.9167 175.6500 242° Southwest 420 483 34,000  Level Anchorage Center
Wed 11:22:00 PM 55.9004 175.5100 246° West 448 516 34,000  Level FlightAware
Wed 11:22:38 PM 55.8667 175.4333 248° West 440 506 34,000  Level Anchorage Center
Wed 11:23:00 PM 55.8493 175.3096 246° West 448 516 34,000  Level FlightAware
Wed 11:23:38 PM 55.8167 175.2667 242° Southwest 420 483 34,000  Level Anchorage Center
Wed 11:24:00 PM 55.7980 175.1097 245° Southwest 448 516 34,000  Level FlightAware
Wed 11:24:38 PM 55.7667 175.0333 249° West 450 518 34,000  Level Anchorage Center
Wed 11:25:00 PM 55.7463 174.9103 245° Southwest 448 516 34,000  Level FlightAware
Wed 11:25:38 PM 55.7167 174.8167 248° West 450 518 34,000  Level Anchorage Center
Wed 11:26:39 PM 55.6667 174.6500 242° Southwest 440 506 34,000  Level Anchorage Center
Wed 11:27:38 PM 55.6167 174.4500 246° West 430 495 34,000  Level Anchorage Center
Wed 11:28:38 PM 55.5667 174.2667 244° Southwest 440 506 34,000  Level Anchorage Center
Wed 11:29:39 PM 55.5167 174.0667 246° West 440 506 34,000  Level Anchorage Center
Wed 11:30:38 PM 55.4667 173.8833 244° Southwest 440 506 34,000  Level Anchorage Center
Wed 11:31:38 PM 55.4000 173.6833 240° Southwest 440 506 34,000  Level Anchorage Center
Wed 11:32:39 PM 55.3500 173.4667 248° West 450 518 34,000  Level Anchorage Center
Wed 11:33:39 PM 55.3000 173.2833 244° Southwest 450 518 34,000  Level Anchorage Center
Wed 11:34:39 PM 55.2333 173.0833 240° Southwest 440 506 34,000  Level Anchorage Center
Wed 11:35:39 PM 55.2000 172.9167 251° West 440 506 34,000 100 Level Anchorage Center
Wed 11:36:39 PM 55.1333 172.7167 240° Southwest 440 506 34,200 350 Climbing Anchorage Center
Wed 11:37:39 PM 55.0833 172.5500 242° Southwest 440 506 34,700 500 Climbing Anchorage Center
Wed 11:38:39 PM 55.0333 172.3500 247° West 430 495 35,200 450 Climbing Anchorage Center
Wed 11:39:39 PM 54.9833 172.1833 242° Southwest 440 506 35,600 400 Climbing Anchorage Center
Wed 11:40:39 PM 54.9167 171.9667 242° Southwest 430 495 36,000 200 Climbing Anchorage Center
Wed 11:41:39 PM 54.8333 171.7667 234° Southwest 450 518 36,000  Level Anchorage Center
Wed 11:42:39 PM 54.7833 171.6167 240° Southwest 450 518 36,000  Level Anchorage Center
Wed 11:43:39 PM 54.7000 171.4333 232° Southwest 450 518 36,000  Level Anchorage Center
Wed 11:44:39 PM 54.6333 171.2833 233° Southwest 450 518 36,000  Level Anchorage Center
Wed 11:45:39 PM 54.5667 171.1000 238° Southwest 440 506 36,000  Level Anchorage Center
Wed 11:46:39 PM 54.5000 170.9500 233° Southwest 440 506 36,000  Level Anchorage Center
Wed 11:47:39 PM 54.4167 170.7667 232° Southwest 440 506 36,000  Level Anchorage Center
Wed 11:48:40 PM 54.3333 170.5667 235° Southwest 470 541 36,000  Level Anchorage Center
Wed 11:49:40 PM 54.2667 170.4333 229° Southwest 430 495 36,000  Level Anchorage Center
Wed 11:50:40 PM 54.1833 170.2500 232° Southwest 440 506 36,000  Level Anchorage Center
Wed 11:51:40 PM 54.1333 170.1000 240° Southwest 430 495 36,000  Level Anchorage Center
Wed 11:52:40 PM 54.0500 169.9167 232° Southwest 430 495 36,000  Level Anchorage Center
Wed 11:53:40 PM 53.9833 169.7833 230° Southwest 440 506 36,000  Level Anchorage Center
Wed 11:54:40 PM 53.9000 169.6000 232° Southwest 440 506 36,000  Level Anchorage Center
Wed 11:55:40 PM 53.8333 169.4500 233° Southwest 450 518 36,000  Level Anchorage Center
Wed 11:56:40 PM 53.7667 169.2667 238° Southwest 460 529 36,000  Level Anchorage Center
Wed 11:57:40 PM 53.6833 169.0833 233° Southwest 460 529 36,000  Level Anchorage Center
Wed 11:58:40 PM 53.6333 168.9167 243° Southwest 450 518 36,000  Level Anchorage Center
Wed 11:59:40 PM 53.5667 168.7167 241° Southwest 440 506 36,000  Level Anchorage Center
Thu 12:00:40 AM 53.5167 168.5667 241° Southwest 450 518 36,000  Level Anchorage Center
Thu 12:02:28 AM 53.4167 168.2333 240° Southwest 432 497 36,000  Level Anchorage Center
Thu 12:09:00 AM 52.9844 167.0212 239° Southwest 432 497 36,000  Level FlightAware
Thu 12:10:00 AM 52.9216 166.8500 239° Southwest 432 497 36,000  Level FlightAware
Thu 12:11:00 AM 52.8586 166.6794 238° Southwest 432 497 36,000  Level FlightAware
Thu 12:12:00 AM 52.7954 166.5092 238° Southwest 432 497 36,000  Level FlightAware
Thu 12:13:00 AM 52.7319 166.3395 238° Southwest 432 497 36,000  Level FlightAware
Thu 12:14:00 AM 52.6682 166.1703 238° Southwest 432 497 36,000  Level FlightAware
Thu 12:15:00 AM 52.6042 166.0016 238° Southwest 432 497 36,000  Level FlightAware
Thu 12:15:21 AM 52.6333 166.0833 238° Southwest 437 503 36,000  Level Anchorage Center
Thu 12:16:00 AM 52.5400 165.8334 238° Southwest 432 497 36,000  Level FlightAware
Thu 12:17:00 AM 52.4755 165.6657 238° Southwest 432 497 36,000  Level FlightAware
Thu 12:18:00 AM 52.4108 165.4985 238° Southwest 432 497 36,000  Level FlightAware
Thu 12:19:00 AM 52.3459 165.3318 237° Southwest 432 497 36,000  Level FlightAware
Thu 12:20:00 AM 52.2808 165.1655 237° Southwest 432 497 36,000  Level FlightAware
Thu 12:21:00 AM 52.2410 165.0686 237° Southwest 437 503 36,000  Level FlightAware
Thu 12:22:00 AM 52.1747 164.9013 237° Southwest 437 503 36,000  Level FlightAware
Thu 12:23:00 AM 52.1083 164.7344 237° Southwest 437 503 36,000  Level FlightAware
Thu 12:24:00 AM 52.0416 164.5680 237° Southwest 437 503 36,000  Level FlightAware
Thu 12:25:00 AM 51.9746 164.4021 237° Southwest 437 503 36,000  Level FlightAware
Thu 12:26:00 AM 51.9075 164.2368 237° Southwest 437 503 36,000  Level FlightAware
Thu 12:27:00 AM 51.8401 164.0719 236° Southwest 437 503 36,000  Level FlightAware
Thu 12:28:00 AM 51.7724 163.9075 236° Southwest 437 503 36,000  Level FlightAware
Thu 12:29:00 AM 51.7046 163.7436 236° Southwest 437 503 36,000  Level FlightAware
Thu 12:29:51 AM 51.6500 163.6500 236° Southwest 433 498 36,000  Level Anchorage Center
Thu 12:30:00 AM 51.6365 163.5802 236° Southwest 437 503 36,000  Level FlightAware
Thu 12:31:00 AM 51.5682 163.4173 236° Southwest 437 503 36,000  Level FlightAware
Thu 12:32:00 AM 51.4996 163.2549 236° Southwest 437 503 36,000  Level FlightAware
Thu 12:33:00 AM 51.4309 163.0929 236° Southwest 437 503 36,000  Level FlightAware
Thu 12:34:00 AM 51.3619 162.9315 236° Southwest 437 503 36,000  Level FlightAware
Thu 12:35:00 AM 51.2927 162.7705 235° Southwest 437 503 36,000  Level FlightAware
Thu 12:36:00 AM 51.2492 162.6985 236° Southwest 433 498 36,000  Level FlightAware
Thu 12:37:00 AM 51.1817 162.5416 235° Southwest 433 498 36,000  Level FlightAware
Thu 12:38:00 AM 51.1139 162.3851 235° Southwest 433 498 36,000  Level FlightAware
Thu 12:39:00 AM 51.0460 162.2290 235° Southwest 433 498 36,000  Level FlightAware
Thu 12:40:00 AM 50.9778 162.0735 235° Southwest 433 498 36,000  Level FlightAware
Thu 12:41:00 AM 50.9094 161.9183 235° Southwest 433 498 36,000  Level FlightAware
Thu 12:41:41 AM 50.8500 161.7833 235° Southwest 437 503 36,000  Level Anchorage Center
Thu 12:42:00 AM 50.8409 161.7637 235° Southwest 433 498 36,000  Level FlightAware
Thu 12:43:00 AM 50.7721 161.6094 235° Southwest 433 498 36,000  Level FlightAware
Thu 12:44:00 AM 50.7031 161.4557 235° Southwest 433 498 36,000  Level FlightAware
Thu 12:45:00 AM 50.6339 161.3024 234° Southwest 433 498 36,000  Level FlightAware
Thu 12:46:00 AM 50.5645 161.1495 234° Southwest 433 498 36,000  Level FlightAware
Thu 12:47:00 AM 50.5013 161.0104 234° Southwest 437 503 36,000  Level FlightAware
Thu 12:48:00 AM 50.4310 160.8572 234° Southwest 437 503 36,000  Level FlightAware
Thu 12:49:00 AM 50.3604 160.7045 234° Southwest 437 503 36,000  Level FlightAware
Thu 12:50:00 AM 50.2897 160.5522 234° Southwest 437 503 36,000  Level FlightAware
Thu 12:51:00 AM 50.2187 160.4003 234° Southwest 437 503 36,000  Level FlightAware
Thu 12:51:04 AM 50.2000 160.3833 234° Southwest 432 497 36,000  Level Anchorage Center
Thu 12:52:00 AM 50.1476 160.2489 234° Southwest 437 503 36,000  Level FlightAware
Thu 12:53:00 AM 50.0763 160.0980 234° Southwest 437 503 36,000  Level FlightAware
Thu 12:54:00 AM 50.0047 159.9475 233° Southwest 437 503 36,000  Level FlightAware
Thu 12:55:00 AM 49.9330 159.7975 233° Southwest 437 503 36,000  Level FlightAware
Thu 12:56:00 AM 49.8611 159.6479 233° Southwest 437 503 36,000  Level FlightAware
Thu 12:57:00 AM 49.7863 159.4964 234° Southwest 432 497 36,000  Level FlightAware
Thu 12:58:00 AM 49.7167 159.3500 233° Southwest 432 497 36,000  Level FlightAware
Thu 12:59:00 AM 49.6445 159.2026 233° Southwest 432 497 36,000  Level FlightAware
Thu 01:00:00 AM 49.5721 159.0556 233° Southwest 432 497 36,000  Level FlightAware
Thu 01:01:00 AM 49.4995 158.9090 233° Southwest 432 497 36,000  Level FlightAware
Thu 01:02:00 AM 49.4267 158.7629 232° Southwest 432 497 36,000  Level FlightAware
Thu 01:03:00 AM 49.3538 158.6172 232° Southwest 432 497 36,000  Level FlightAware
Thu 01:04:00 AM 49.2806 158.4719 232° Southwest 432 497 36,000  Level FlightAware
Thu 01:05:00 AM 49.2073 158.3271 232° Southwest 432 497 36,000  Level FlightAware
Thu 01:06:00 AM 49.1338 158.1827 232° Southwest 432 497 36,000  Level FlightAware
Thu 01:07:00 AM 49.0601 158.0387 232° Southwest 432 497 36,000  Level FlightAware
Thu 01:08:00 AM 48.9863 157.8952 232° Southwest 432 497 36,000  Level FlightAware
Thu 01:09:00 AM 48.9123 157.7520 232° Southwest 432 497 36,000  Level FlightAware
Thu 01:10:00 AM 48.8381 157.6093 232° Southwest 432 497 36,000  Level FlightAware
Thu 01:11:00 AM 48.7637 157.4671 232° Southwest 432 497 36,000  Level FlightAware
Thu 01:12:00 AM 48.6891 157.3252 231° Southwest 432 497 36,000  Level FlightAware
Thu 01:13:00 AM 48.6144 157.1838 231° Southwest 432 497 36,000  Level FlightAware
Thu 01:14:00 AM 48.5395 157.0428 231° Southwest 432 497 36,000  Level FlightAware
Thu 01:15:00 AM 48.4644 156.9022 231° Southwest 432 497 36,000  Level FlightAware
Thu 01:16:00 AM 48.3891 156.7620 231° Southwest 432 497 36,000  Level FlightAware
Thu 01:17:00 AM 48.3137 156.6222 231° Southwest 432 497 36,000  Level FlightAware
Thu 01:18:00 AM 48.2381 156.4829 231° Southwest 432 497 36,000  Level FlightAware
Thu 01:19:00 AM 48.1624 156.3439 231° Southwest 432 497 36,000  Level FlightAware
Thu 01:20:00 AM 48.0865 156.2054 231° Southwest 432 497 36,000  Level FlightAware
Thu 01:21:00 AM 48.0104 156.0673 230° Southwest 432 497 36,000  Level FlightAware
Thu 01:22:00 AM 47.9341 155.9296 230° Southwest 432 497 36,000  Level FlightAware
Thu 01:23:00 AM 47.8577 155.7923 230° Southwest 432 497 36,000  Level FlightAware
Thu 01:24:00 AM 47.7811 155.6553 230° Southwest 432 497 36,000  Level FlightAware
Thu 01:25:00 AM 47.7044 155.5188 230° Southwest 432 497 36,000  Level FlightAware
Thu 01:26:00 AM 47.6275 155.3828 230° Southwest 432 497 36,000  Level FlightAware
Thu 01:27:00 AM 47.5504 155.2471 230° Southwest 432 497 36,000  Level FlightAware
Thu 01:28:00 AM 47.4732 155.1117 230° Southwest 432 497 36,000  Level FlightAware
Thu 01:29:00 AM 47.3958 154.9768 230° Southwest 432 497 36,000  Level FlightAware
Thu 01:30:00 AM 47.3183 154.8423 230° Southwest 432 497 36,000  Level FlightAware
Thu 01:31:00 AM 47.2406 154.7082 229° Southwest 432 497 36,000  Level FlightAware
Thu 01:32:00 AM 47.1627 154.5745 229° Southwest 432 497 36,000  Level FlightAware
Thu 01:33:00 AM 47.0847 154.4412 229° Southwest 432 497 36,000  Level FlightAware
Thu 01:34:00 AM 47.0066 154.3082 229° Southwest 432 497 36,000  Level FlightAware
Thu 01:35:00 AM 46.9283 154.1757 229° Southwest 432 497 36,000  Level FlightAware
Thu 01:36:00 AM 46.8498 154.0435 229° Southwest 432 497 36,000  Level FlightAware
Thu 01:37:00 AM 46.7712 153.9117 229° Southwest 432 497 36,000  Level FlightAware
Thu 01:38:00 AM 46.6924 153.7803 229° Southwest 432 497 36,000  Level FlightAware
Thu 01:39:00 AM 46.6135 153.6494 229° Southwest 432 497 36,000  Level FlightAware
Thu 01:40:00 AM 46.5344 153.5187 229° Southwest 432 497 36,000  Level FlightAware
Thu 01:41:00 AM 46.4552 153.3885 228° Southwest 432 497 36,000  Level FlightAware
Thu 01:42:00 AM 46.3758 153.2586 228° Southwest 432 497 36,000  Level FlightAware
Thu 01:43:00 AM 46.2963 153.1291 228° Southwest 432 497 36,000  Level FlightAware
Thu 01:44:00 AM 46.2170 153.0006 228° Southwest  Level FlightAware
Thu 01:45:00 AM 46.1375 152.8725 228° Southwest  Level FlightAware
Thu 01:46:00 AM 46.1375 152.8736 228° Southwest  Level FlightAware
Thu 01:47:00 AM 46.0574 152.7465 228° Southwest  Level FlightAware
Thu 01:48:00 AM 45.9772 152.6197 228° Southwest  Level FlightAware
Thu 01:49:00 AM 45.8968 152.4933 228° Southwest  Level FlightAware
Thu 01:50:00 AM 45.8163 152.3672 228° Southwest  Level FlightAware
Thu 01:51:00 AM 45.7357 152.2415 227° Southwest  Level FlightAware
Thu 01:52:00 AM 45.6549 152.1162 227° Southwest  Level FlightAware
Thu 01:53:00 AM 45.5740 151.9912 227° Southwest  Level FlightAware
Thu 01:54:00 AM 45.4930 151.8666 227° Southwest  Level FlightAware
Thu 01:55:00 AM 45.4118 151.7423 227° Southwest  Level FlightAware
Thu 01:56:00 AM 45.3305 151.6185 227° Southwest  Level FlightAware
Thu 01:57:00 AM 45.2491 151.4949 227° Southwest  Level FlightAware
Thu 01:58:00 AM 45.1675 151.3717 227° Southwest  Level FlightAware
Thu 01:59:00 AM 45.0858 151.2489 227° Southwest  Level FlightAware
Thu 02:00:00 AM 45.0039 151.1264 227° Southwest  Level FlightAware
Thu 02:01:00 AM 44.9220 151.0043 227° Southwest  Level FlightAware
Thu 02:02:00 AM 44.8399 150.8825 226° Southwest  Level FlightAware
Thu 02:03:00 AM 44.7576 150.7611 226° Southwest  Level FlightAware
Thu 02:04:00 AM 44.6753 150.6400 226° Southwest  Level FlightAware
Thu 02:05:00 AM 44.5928 150.5192 226° Southwest  Level FlightAware
Thu 02:06:00 AM 44.5102 150.3988 226° Southwest  Level FlightAware
Thu 02:07:00 AM 44.4274 150.2788 226° Southwest  Level FlightAware
Thu 02:08:00 AM 44.3446 150.1591 226° Southwest  Level FlightAware
Thu 02:09:00 AM 44.2616 150.0397 226° Southwest  Level FlightAware
Thu 02:10:00 AM 44.1785 149.9206 226° Southwest  Level FlightAware
Thu 02:11:00 AM 44.0952 149.8019 226° Southwest  Level FlightAware
Thu 02:12:00 AM 44.0119 149.6835 226° Southwest  Level FlightAware
Thu 02:13:00 AM 43.9284 149.5655 226° Southwest  Level FlightAware
Thu 02:14:00 AM 43.8448 149.4478 225° Southwest  Level FlightAware
Thu 02:15:00 AM 43.7611 149.3304 225° Southwest  Level FlightAware
Thu 02:16:00 AM 43.6772 149.2133 225° Southwest  Level FlightAware
Thu 02:17:00 AM 43.5933 149.0966 225° Southwest  Level FlightAware
Thu 02:18:00 AM 43.5092 148.9802 225° Southwest  Level FlightAware
Thu 02:18:34 AM 43.4620 148.9150 225° Southwest 431 496 36,000  Level FlightAware
Thu 02:19:00 AM 43.4250 148.8641 225° Southwest  Level FlightAware
Thu 02:19:19 AM 43.4010 148.8300 225° Southwest 433 498 36,000  Level FlightAware
Thu 02:19:54 AM 43.3490 148.7600 224° Southwest 432 497 36,000  Level FlightAware
Thu 02:20:39 AM 43.2930 148.6830 225° Southwest 430 495 36,000  Level FlightAware
Thu 02:21:34 AM 43.2060 148.5640 225° Southwest 430 495 36,000  Level FlightAware
Thu 02:22:19 AM 43.1450 148.4810 225° Southwest 429 494 36,000  Level FlightAware
Thu 02:22:59 AM 43.0890 148.4050 225° Southwest 430 495 36,000  Level FlightAware
Thu 02:23:34 AM 43.0380 148.3360 225° Southwest 431 496 36,000  Level FlightAware
Thu 02:24:14 AM 42.9820 148.2610 224° Southwest 430 495 36,000  Level FlightAware
Thu 02:25:14 AM 42.8950 148.1440 225° Southwest 428 493 36,000  Level FlightAware
Thu 02:26:04 AM 42.8280 148.0540 225° Southwest 429 494 36,000  Level FlightAware
Thu 02:26:44 AM 42.7720 147.9790 225° Southwest 429 494 36,000  Level FlightAware
Thu 02:27:29 AM 42.7070 147.8930 224° Southwest 429 494 36,000  Level FlightAware
Thu 02:28:09 AM 42.6510 147.8180 225° Southwest 430 495 36,000  Level FlightAware
Thu 02:28:49 AM 42.5910 147.7390 224° Southwest 429 494 36,000  Level FlightAware
Thu 02:29:29 AM 42.5330 147.6620 224° Southwest 430 495 36,000  Level FlightAware
Thu 02:30:14 AM 42.4680 147.5770 224° Southwest 432 497 36,000  Level FlightAware
Thu 02:30:59 AM 42.4050 147.4930 225° Southwest 432 497 36,000  Level FlightAware
Thu 02:31:39 AM 42.3480 147.4190 224° Southwest 430 495 36,000  Level FlightAware
Thu 02:32:09 AM 42.3080 147.3670 224° Southwest 430 495 36,000 171 Level FlightAware
Thu 02:32:49 AM 42.2510 147.2930 224° Southwest 428 493 36,200 525 Climbing FlightAware
Thu 02:33:29 AM 42.1950 147.2190 224° Southwest 422 486 36,700 600 Climbing FlightAware
Thu 02:34:09 AM 42.1360 147.1430 224° Southwest 422 486 37,000 212 Climbing FlightAware
Thu 02:34:54 AM 42.0760 147.0650 224° Southwest 424 488 37,000  Level FlightAware
Thu 02:35:34 AM 42.0180 146.9900 224° Southwest 425 489 37,000  Level FlightAware
Thu 02:36:19 AM 41.9530 146.9060 224° Southwest 425 489 37,000  Level FlightAware
Thu 02:36:59 AM 41.8940 146.8300 224° Southwest 423 487 37,000  Level FlightAware
Thu 02:37:44 AM 41.8340 146.7540 223° Southwest 422 486 37,000  Level FlightAware
Thu 02:38:24 AM 41.7750 146.6780 224° Southwest 423 487 37,000  Level FlightAware
Thu 02:39:34 AM 41.6790 146.5560 224° Southwest 423 487 37,000  Level FlightAware
Thu 02:40:14 AM 41.6210 146.4820 224° Southwest 423 487 37,000  Level FlightAware
Thu 02:40:59 AM 41.5560 146.3990 224° Southwest 422 486 37,000  Level FlightAware
Thu 02:41:54 AM 41.4780 146.3010 223° Southwest 420 483 37,000  Level FlightAware
Thu 02:42:49 AM 41.4030 146.2060 224° Southwest 421 484 37,000  Level FlightAware
Thu 02:43:34 AM 41.3350 146.1210 223° Southwest 421 484 37,000  Level FlightAware
Thu 02:44:14 AM 41.2780 146.0490 224° Southwest 420 483 37,000  Level FlightAware
Thu 02:45:04 AM 41.2130 145.9680 223° Southwest 418 481 37,000  Level FlightAware
Thu 02:45:29 AM 41.1780 145.9250 223° Southwest 418 481 37,000  Level FlightAware
Thu 02:46:24 AM 41.0960 145.8230 223° Southwest 418 481 37,000  Level FlightAware
Thu 02:46:59 AM 41.0490 145.7650 223° Southwest 416 479 37,000  Level FlightAware
Thu 02:47:44 AM 40.9850 145.6860 223° Southwest 416 479 37,000  Level FlightAware
Thu 02:48:39 AM 40.9060 145.5880 223° Southwest 416 479 37,000  Level FlightAware
Thu 02:49:14 AM 40.8590 145.5300 223° Southwest 414 476 37,000  Level FlightAware
Thu 02:50:04 AM 40.7900 145.4450 223° Southwest 406 467 37,000  Level FlightAware
Thu 02:50:44 AM 40.7350 145.3790 222° Southwest 406 467 37,000  Level FlightAware
Thu 02:51:19 AM 40.6830 145.3150 223° Southwest 406 467 37,000  Level FlightAware
Thu 02:52:09 AM 40.6190 145.2370 223° Southwest 406 467 37,000  Level FlightAware
Thu 02:52:54 AM 40.5530 145.1570 223° Southwest 414 476 37,000  Level FlightAware
Thu 02:53:34 AM 40.4930 145.0850 222° Southwest 415 478 37,000  Level FlightAware
Thu 02:54:09 AM 40.4430 145.0240 223° Southwest 415 478 37,000  Level FlightAware
Thu 02:54:54 AM 40.3780 144.9460 222° Southwest 416 479 37,000  Level FlightAware
Thu 02:55:34 AM 40.3230 144.8800 222° Southwest 416 479 37,000  Level FlightAware
Thu 02:56:24 AM 40.2530 144.7960 222° Southwest 417 480 37,000  Level FlightAware
Thu 02:56:59 AM 40.2050 144.7390 222° Southwest 417 480 37,000  Level FlightAware
Thu 02:57:49 AM 40.1340 144.6540 222° Southwest 419 482 37,000  Level FlightAware
Thu 02:58:29 AM 40.0850 144.5970 222° Southwest 419 482 37,000  Level FlightAware
Thu 02:59:09 AM 40.0360 144.5390 222° Southwest 419 482 37,000  Level FlightAware
Thu 02:59:49 AM 39.9870 144.4820 222° Southwest 419 482 37,000  Level FlightAware
Thu 03:00:37 AM 39.9280 144.4130 222° Southwest 419 482 37,000  Level FlightAware
Thu 03:01:08 AM 39.8900 144.3680 222° Southwest 419 482 37,000  Level FlightAware
Thu 03:01:58 AM 39.8290 144.2960 222° Southwest 419 482 37,000  Level FlightAware
Thu 03:02:33 AM 39.7860 144.2460 222° Southwest 419 482 37,000  Level FlightAware
Thu 03:03:23 AM 39.7250 144.1750 222° Southwest 419 482 37,000  Level FlightAware
Thu 03:04:03 AM 39.6760 144.1170 222° Southwest 419 482 37,000  Level FlightAware
Thu 03:04:43 AM 39.6270 144.0600 222° Southwest 419 482 37,000  Level FlightAware
Thu 03:05:23 AM 39.5780 144.0030 222° Southwest 419 482 37,000  Level FlightAware
Thu 03:06:03 AM 39.5290 143.9460 222° Southwest 419 482 37,000  Level FlightAware
Thu 03:06:53 AM 39.4680 143.8740 222° Southwest 419 482 37,000  Level FlightAware
Thu 03:09:00 AM 39.2846 143.6541 223° Southwest  Level FlightAware
Thu 03:10:00 AM 39.1978 143.5506 223° Southwest  Level FlightAware
Thu 03:11:00 AM 39.1092 143.4501 221° Southwest  Level FlightAware
Thu 03:12:00 AM 39.0200 143.3503 221° Southwest  Level FlightAware
Thu 03:13:00 AM 38.9307 143.2508 221° Southwest  Level FlightAware
Thu 03:14:00 AM 38.8257 143.1880 197° South  Level FlightAware
Thu 03:14:48 AM 38.5140 143.2850 197° South 438 504 37,000  Level FlightAware
Thu 03:15:28 AM 38.4280 143.2640 191° South 437 503 37,000  Level FlightAware
Thu 03:16:13 AM 38.3440 143.2450 190° South 434 499 37,000  Level FlightAware
Thu 03:17:08 AM 38.2470 143.2210 191° South 432 497 37,000  Level FlightAware
Thu 03:17:48 AM 38.1800 143.2050 191° South 432 497 37,000  Level FlightAware
Thu 03:18:28 AM 38.1130 143.1880 191° South 432 497 37,000  Level FlightAware
Thu 03:19:08 AM 38.0060 143.1660 189° South 426 490 37,000  Level FlightAware
Thu 03:19:58 AM 37.9000 143.1410 191° South 428 493 37,000  Level FlightAware
Thu 03:20:38 AM 37.8170 143.1220 190° South 429 494 37,000  Level FlightAware
Thu 03:21:18 AM 37.7420 143.1050 190° South 426 490 37,000  Level FlightAware
Thu 03:22:13 AM 37.6360 143.0800 191° South 425 489 37,000  Level FlightAware
Thu 03:22:58 AM 37.5430 143.0590 190° South 429 494 37,000  Level FlightAware
Thu 03:23:53 AM 37.4450 143.0360 191° South 427 491 37,000  Level FlightAware
Thu 03:24:38 AM 37.3540 143.0140 191° South 413 475 37,000  Level FlightAware
Thu 03:25:13 AM 37.2890 142.9860 199° South 399 459 37,000  Level FlightAware
Thu 03:25:58 AM 37.2150 142.9480 202° Southwest 398 458 37,000  Level FlightAware
Thu 03:26:38 AM 37.1530 142.9170 202° Southwest 396 456 37,000  Level FlightAware
Thu 03:27:18 AM 37.0850 142.8820 202° Southwest 396 456 37,000  Level FlightAware
Thu 03:28:33 AM 36.9640 142.8210 202° Southwest 379 436 37,000  Level FlightAware
Thu 03:29:13 AM 36.9090 142.7930 202° Southwest 379 436 37,000  Level FlightAware
Thu 03:29:53 AM 36.8530 142.7650 202° Southwest 379 436 37,000  Level FlightAware
Thu 03:30:33 AM 36.7980 142.7370 202° Southwest 379 436 37,000  Level FlightAware
Thu 03:31:23 AM 36.7290 142.7020 202° Southwest 379 436 37,000  Level FlightAware
Thu 03:32:03 AM 36.6490 142.5940 227° Southwest 37,000  Level FlightAware
Thu 03:32:53 AM 36.5810 142.5410 212° Southwest 362 417 37,000  Level FlightAware
Thu 03:33:33 AM 36.5330 142.5040 212° Southwest 362 417 37,000 -133 Level FlightAware
Thu 03:34:23 AM 36.4590 142.4460 212° Southwest 346 398 36,800 -1,906 Descending FlightAware
Thu 03:34:58 AM 36.4080 142.4070 212° Southwest 353 406 34,300 -3,375 Descending FlightAware
Thu 03:35:43 AM 36.3470 142.3590 212° Southwest 367 422 32,300 -1,620 Descending FlightAware
Thu 03:36:38 AM 36.2650 142.2960 212° Southwest 369 425 31,600 -1,380 Descending FlightAware
Thu 03:37:23 AM 36.2030 142.2480 212° Southwest 339 390 30,000 -1,980 Descending FlightAware
Thu 03:38:18 AM 36.1270 142.1890 212° Southwest 330 380 28,300 -1,800 Descending FlightAware
Thu 03:38:58 AM 36.0760 142.1500 212° Southwest 27,200 -1,765 Descending FlightAware
Thu 03:39:43 AM 36.0150 142.1030 212° Southwest 339 390 25,800 -1,553 Descending FlightAware
Thu 03:40:23 AM 35.9730 142.0620 218° Southwest 322 371 25,000 -1,050 Descending FlightAware
Thu 03:41:03 AM 35.9410 142.0000 237° Southwest 317 365 24,400 -831 Descending FlightAware
Thu 03:41:28 AM 35.9320 141.9600 254° West 328 377 24,100 -720 Descending FlightAware
Thu 03:42:18 AM 35.9250 141.8670 265° West 335 386 23,500 -667 Descending FlightAware
Thu 03:42:58 AM 35.9200 141.7910 265° West 336 387 23,100 -720 Descending FlightAware
Thu 03:43:33 AM 35.9140 141.7150 264° West 332 382 22,600 -918 Descending FlightAware
Thu 03:44:23 AM 35.9070 141.6230 265° West 332 382 21,800 -1,080 Descending FlightAware
Thu 03:45:13 AM 35.9010 141.5340 265° West 316 364 20,800 -1,860 Descending FlightAware
Thu 03:46:03 AM 35.8940 141.4450 264° West 316 364 18,700 -2,550 Descending FlightAware
Thu 03:46:33 AM 35.8900 141.3900 265° West 317 365 17,400 -2,720 Descending FlightAware
Thu 03:47:18 AM 35.8830 141.3030 264° West 319 367 15,300 -2,296 Descending FlightAware
Thu 03:48:28 AM 35.8840 141.1820 271° West 331 381 13,000 -1,371 Descending FlightAware
Thu 03:49:38 AM 35.8880 141.0460 272° West 324 373 12,100 -1,022 Descending FlightAware
Thu 03:50:43 AM 35.8920 140.9240 272° West 322 371 10,700 -814 Descending FlightAware
Thu 03:51:58 AM 35.8970 140.7960 273° West 271 312 10,200 -457 Descending FlightAware
Thu 03:52:28 AM 35.8990 140.7510 273° West 255 293 9,900 -933 Descending FlightAware
Thu 03:52:43 AM 35.8990 140.7290 270° West 253 291 9,500 -1,800 Descending FlightAware
Thu 03:53:08 AM 35.9010 140.6920 274° West 248 285 8,700 -941 Descending FlightAware
Thu 03:53:34 AM 35.9010 140.6580 270° West 248 285 8,700  Level FlightAware
Thu 03:54:05 AM 35.9020 140.6200 272° West 248 285 8,700  Level FlightAware
Thu 03:54:15 AM 35.9020 140.6080 270° West 248 285 8,700 -6,429 Level FlightAware
Thu 03:54:33 AM 35.9180 140.5860 312° West 254 292 5,700 -4,875 Descending FlightAware
Thu 03:55:03 AM 35.9390 140.5350 297° West 253 291 4,800 -1,636 Descending FlightAware
Thu 03:55:28 AM 35.9500 140.5020 292° West 247 284 4,200 -1,527 Descending FlightAware
Thu 03:55:58 AM 35.9530 140.4580 275° West 254 292 3,400 -1,333 Descending FlightAware
Thu 03:56:13 AM 35.9550 140.4370 277° West 249 287 3,200 -900 Descending FlightAware
Thu 03:56:38 AM 35.9570 140.4030 274° West 243 280 2,800 -500 Descending FlightAware
Thu 03:57:13 AM 35.9600 140.3600 275° West 240 276 2,700 -655 Descending FlightAware
Thu 03:57:33 AM 35.9490 140.3390 237° Southwest 230 265 2,200 -840 Descending FlightAware
Thu 03:58:03 AM 35.9370 140.3080 244° Southwest 202 232 2,000 -450 Descending FlightAware
Thu 03:58:13 AM 35.9250 140.3020 202° Southwest 190 219 1,900 -300 Descending FlightAware
Thu 03:58:43 AM 35.9010 140.3070 170° South 176 203 1,800  Descending FlightAware
Thu 03:59:13 AM 35.8820 140.3230 146° Southeast 176 203 1,900 -109 Climbing FlightAware
Thu 03:59:38 AM 35.8680 140.3320 152° Southeast 162 186 1,700 -771 Descending FlightAware
Thu 04:00:23 AM 35.8400 140.3530 149° Southeast 136 157 1,000 -840 Descending FlightAware
Thu 04:00:28 AM 35.8370 140.3550 152° Southeast 136 157 1,000  Level FlightAware
Thu 04:03:00 AM 35.7647 140.3864 253° West  Level Estimated

Login

Don't have an account? Register now (free) for customized features, flight alerts, and more!